sensor_id;sensor_type;location;lat;lon;timestamp;pressure;altitude;pressure_sealevel;temperature;humidity
57799;BME280;43626;53.866;30.298;2023-05-07T00:02:07;1036.4;;;5;38.5
57799;BME280;43626;53.866;30.298;2023-05-07T00:06:57;1036.4;;;5;38.3
57799;BME280;43626;53.866;30.298;2023-05-07T00:11:57;1036.3;;;5;38.3
57799;BME280;43626;53.866;30.298;2023-05-07T00:16:19;1036.3;;;4.9;38.3
57799;BME280;43626;53.866;30.298;2023-05-07T00:22:07;1036.3;;;4.9;38.2
57799;BME280;43626;53.866;30.298;2023-05-07T06:06:45;1037.5;;;7.6;33.8
57799;BME280;43626;53.866;30.298;2023-05-07T06:12:05;1037.5;;;7.6;33.3
57799;BME280;43626;53.866;30.298;2023-05-07T06:16:49;1037.5;;;7.6;32.4
57799;BME280;43626;53.866;30.298;2023-05-07T06:21:19;1037.5;;;7.7;32.3
57799;BME280;43626;53.866;30.298;2023-05-07T06:26:19;1037.6;;;7.8;32.8
57799;BME280;43626;53.866;30.298;2023-05-07T06:32:06;1037.6;;;7.8;32.5
57799;BME280;43626;53.866;30.298;2023-05-07T06:36:29;1037.6;;;7.8;32.4
57799;BME280;43626;53.866;30.298;2023-05-07T06:42:03;1037.7;;;7.9;31.9
57799;BME280;43626;53.866;30.298;2023-05-07T06:46:51;1037.7;;;8.1;32.1
57799;BME280;43626;53.866;30.298;2023-05-07T06:51:31;1037.7;;;8.1;31.8
57799;BME280;43626;53.866;30.298;2023-05-07T06:56:31;1037.7;;;8.2;31.6
57799;BME280;43626;53.866;30.298;2023-05-07T07:01:45;1037.7;;;8.3;31.6
57799;BME280;43626;53.866;30.298;2023-05-07T07:06:37;1037.7;;;8.4;31.4
57799;BME280;43626;53.866;30.298;2023-05-07T07:11:57;1037.7;;;8.7;30.6
57799;BME280;43626;53.866;30.298;2023-05-07T07:16:45;1037.7;;;8.8;30.2
57799;BME280;43626;53.866;30.298;2023-05-07T07:21:19;1037.7;;;9;29.5
57799;BME280;43626;53.866;30.298;2023-05-07T07:27:05;1037.6;;;9.1;28.9
57799;BME280;43626;53.866;30.298;2023-05-07T07:32:05;1037.5;;;9.1;29
57799;BME280;43626;53.866;30.298;2023-05-07T07:36:25;1037.5;;;9.2;29.7
57799;BME280;43626;53.866;30.298;2023-05-07T07:41:19;1037.6;;;9.2;29.3
57799;BME280;43626;53.866;30.298;2023-05-07T07:46:19;1037.6;;;9.2;29.2
57799;BME280;43626;53.866;30.298;2023-05-07T07:52:05;1037.6;;;9.1;29.2
57799;BME280;43626;53.866;30.298;2023-05-07T07:56:41;1037.7;;;9.3;29
57799;BME280;43626;53.866;30.298;2023-05-07T08:01:31;1037.6;;;9.3;29
57799;BME280;43626;53.866;30.298;2023-05-07T08:06:53;1037.6;;;9.2;28.7
57799;BME280;43626;53.866;30.298;2023-05-07T08:11:31;1037.6;;;9;28.5
57799;BME280;43626;53.866;30.298;2023-05-07T08:16:37;1037.6;;;9;28.5
57799;BME280;43626;53.866;30.298;2023-05-07T08:21:38;1037.6;;;8.9;28.9
57799;BME280;43626;53.866;30.298;2023-05-07T08:27:01;1037.5;;;9.2;28.9
57799;BME280;43626;53.866;30.298;2023-05-07T08:31:19;1037.5;;;9.4;28.1
57799;BME280;43626;53.866;30.298;2023-05-07T08:37:05;1037.5;;;9.4;28.4
57799;BME280;43626;53.866;30.298;2023-05-07T08:42:05;1037.4;;;9.6;28.2
57799;BME280;43626;53.866;30.298;2023-05-07T08:46:20;1037.4;;;9.6;28
57799;BME280;43626;53.866;30.298;2023-05-07T08:51:20;1037.4;;;9.3;28.1
57799;BME280;43626;53.866;30.298;2023-05-07T08:56:53;1037.4;;;9.5;28.1
57799;BME280;43626;53.866;30.298;2023-05-07T09:01:49;1037.4;;;9.5;27.6
57799;BME280;43626;53.866;30.298;2023-05-07T09:06:57;1037.4;;;9.7;27.3
57799;BME280;43626;53.866;30.298;2023-05-07T09:11:45;1037.4;;;9.8;27.1
57799;BME280;43626;53.866;30.298;2023-05-07T09:17:05;1037.3;;;9.9;27
57799;BME280;43626;53.866;30.298;2023-05-07T09:21:49;1037.2;;;10.1;25.9
57799;BME280;43626;53.866;30.298;2023-05-07T09:26:33;1037.3;;;10.3;26.5
57799;BME280;43626;53.866;30.298;2023-05-07T09:31:31;1037.2;;;10.4;26.9
57799;BME280;43626;53.866;30.298;2023-05-07T09:37:06;1037.2;;;10.6;26.8
57799;BME280;43626;53.866;30.298;2023-05-07T09:41:20;1037.2;;;10.6;26.4
57799;BME280;43626;53.866;30.298;2023-05-07T09:46:54;1037.2;;;10.6;26.3
57799;BME280;43626;53.866;30.298;2023-05-07T09:51:53;1037.1;;;10.6;26.1
57799;BME280;43626;53.866;30.298;2023-05-07T09:56:20;1037;;;10.6;25.8
57799;BME280;43626;53.866;30.298;2023-05-07T10:01:47;1037;;;10.7;25.7
57799;BME280;43626;53.866;30.298;2023-05-07T10:06:20;1037.1;;;10.7;25.9
57799;BME280;43626;53.866;30.298;2023-05-07T10:11:19;1037;;;10.7;25.7
57799;BME280;43626;53.866;30.298;2023-05-07T10:16:56;1037;;;10.8;25.5
57799;BME280;43626;53.866;30.298;2023-05-07T10:21:59;1037;;;10.8;25.2
57799;BME280;43626;53.866;30.298;2023-05-07T10:26:32;1037;;;10.9;25.4
57799;BME280;43626;53.866;30.298;2023-05-07T10:31:50;1036.9;;;10.9;25.6
57799;BME280;43626;53.866;30.298;2023-05-07T10:36:57;1036.9;;;11.1;25.5
57799;BME280;43626;53.866;30.298;2023-05-07T10:42:07;1036.8;;;11.2;25.1
57799;BME280;43626;53.866;30.298;2023-05-07T10:46:20;1036.8;;;11.1;25.1
57799;BME280;43626;53.866;30.298;2023-05-07T10:52:25;1036.8;;;11.1;25
57799;BME280;43626;53.866;30.298;2023-05-07T10:57:32;1036.8;;;11.1;24.2
57799;BME280;43626;53.866;30.298;2023-05-07T11:02:03;1036.8;;;11.2;24
57799;BME280;43626;53.866;30.298;2023-05-07T11:06:26;1036.7;;;11.4;23.8
57799;BME280;43626;53.866;30.298;2023-05-07T11:12:06;1036.6;;;11.5;23.8
57799;BME280;43626;53.866;30.298;2023-05-07T11:17:01;1036.6;;;11.6;24.1
57799;BME280;43626;53.866;30.298;2023-05-07T11:21:36;1036.6;;;11.8;23.9
57799;BME280;43626;53.866;30.298;2023-05-07T11:26:41;1036.6;;;11.8;23.9
57799;BME280;43626;53.866;30.298;2023-05-07T11:32:06;1036.6;;;11.8;23.7
57799;BME280;43626;53.866;30.298;2023-05-07T11:36:32;1036.5;;;12;23.7
57799;BME280;43626;53.866;30.298;2023-05-07T11:41:54;1036.4;;;12.2;23.7
57799;BME280;43626;53.866;30.298;2023-05-07T11:47:06;1036.4;;;12.2;23.6
57799;BME280;43626;53.866;30.298;2023-05-07T11:51:20;1036.5;;;12.1;23.1
57799;BME280;43626;53.866;30.298;2023-05-07T11:56:20;1036.4;;;12.1;22.7
57799;BME280;43626;53.866;30.298;2023-05-07T12:01:32;1036.3;;;12;23.3
57799;BME280;43626;53.866;30.298;2023-05-07T12:06:20;1036.4;;;11.9;23.2
57799;BME280;43626;53.866;30.298;2023-05-07T12:11:58;1036.4;;;12;23.5
57799;BME280;43626;53.866;30.298;2023-05-07T12:16:46;1036.4;;;12.3;23.3
57799;BME280;43626;53.866;30.298;2023-05-07T12:21:30;1036.3;;;12.5;23.3
57799;BME280;43626;53.866;30.298;2023-05-07T12:26:52;1036.3;;;12.7;23.3
57799;BME280;43626;53.866;30.298;2023-05-07T12:32:06;1036.2;;;12.9;23.3
57799;BME280;43626;53.866;30.298;2023-05-07T12:36:38;1036.1;;;12.9;23
57799;BME280;43626;53.866;30.298;2023-05-07T12:41:30;1036.1;;;13;23.3
57799;BME280;43626;53.866;30.298;2023-05-07T12:46:32;1036;;;13.2;22.8
57799;BME280;43626;53.866;30.298;2023-05-07T12:52:06;1036;;;13.1;22.5
57799;BME280;43626;53.866;30.298;2023-05-07T12:56:42;1036;;;13.2;22.8
57799;BME280;43626;53.866;30.298;2023-05-07T13:01:20;1036.1;;;13.3;22.2
57799;BME280;43626;53.866;30.298;2023-05-07T13:07:06;1036;;;13.3;21.4
57799;BME280;43626;53.866;30.298;2023-05-07T13:11:34;1036;;;13.5;22.3
57799;BME280;43626;53.866;30.298;2023-05-07T13:16:32;1036;;;13.6;22.5
57799;BME280;43626;53.866;30.298;2023-05-07T13:21:38;1035.9;;;13.7;22.7
57799;BME280;43626;53.866;30.298;2023-05-07T13:27:06;1035.9;;;13.9;22.7
57799;BME280;43626;53.866;30.298;2023-05-07T13:31:32;1035.9;;;14;22.3
57799;BME280;43626;53.866;30.298;2023-05-07T13:37:06;1035.9;;;13.9;22.2
57799;BME280;43626;53.866;30.298;2023-05-07T13:41:54;1035.8;;;14.1;23.7
57799;BME280;43626;53.866;30.298;2023-05-07T13:46:20;1035.8;;;14.5;21.5
57799;BME280;43626;53.866;30.298;2023-05-07T13:51:42;1035.8;;;14.2;21.4
57799;BME280;43626;53.866;30.298;2023-05-07T13:56:54;1035.8;;;14.1;21.5
57799;BME280;43626;53.866;30.298;2023-05-07T14:01:52;1035.8;;;14.4;21.4
57799;BME280;43626;53.866;30.298;2023-05-07T14:06:58;1035.8;;;14.7;21.8
57799;BME280;43626;53.866;30.298;2023-05-07T14:11:20;1035.7;;;14.9;21.7
57799;BME280;43626;53.866;30.298;2023-05-07T14:16:52;1035.8;;;14.9;21.4
57799;BME280;43626;53.866;30.298;2023-05-07T14:22:08;1035.8;;;14.8;21.7
57799;BME280;43626;53.866;30.298;2023-05-07T14:26:20;1035.8;;;14.8;21.6
57799;BME280;43626;53.866;30.298;2023-05-07T14:31:32;1035.7;;;14.7;21.4
57799;BME280;43626;53.866;30.298;2023-05-07T14:36:50;1035.7;;;14.7;21.4
57799;BME280;43626;53.866;30.298;2023-05-07T14:41:30;1035.6;;;14.6;21.2
57799;BME280;43626;53.866;30.298;2023-05-07T14:46:54;1035.6;;;14.8;21.5
57799;BME280;43626;53.866;30.298;2023-05-07T14:51:54;1035.7;;;14.9;20.9
57799;BME280;43626;53.866;30.298;2023-05-07T14:56:20;1035.7;;;15;20.6
57799;BME280;43626;53.866;30.298;2023-05-07T15:01:22;1035.6;;;14.9;20.7
57799;BME280;43626;53.866;30.298;2023-05-07T15:06:46;1035.7;;;14.8;21.1
57799;BME280;43626;53.866;30.298;2023-05-07T15:11:32;1035.7;;;15;21.4
57799;BME280;43626;53.866;30.298;2023-05-07T15:16:58;1035.7;;;15.2;21.4
57799;BME280;43626;53.866;30.298;2023-05-07T15:21:44;1035.7;;;15.2;21.7
57799;BME280;43626;53.866;30.298;2023-05-07T15:26:38;1035.7;;;15.3;22.3
57799;BME280;43626;53.866;30.298;2023-05-07T15:31:50;1035.7;;;15.1;21.2
57799;BME280;43626;53.866;30.298;2023-05-07T15:37:04;1035.7;;;15.1;20.9
57799;BME280;43626;53.866;30.298;2023-05-07T15:41:38;1035.7;;;15.4;20.4
57799;BME280;43626;53.866;30.298;2023-05-07T15:46:20;1035.7;;;15.4;20.3
57799;BME280;43626;53.866;30.298;2023-05-07T15:51:20;1035.7;;;15.4;20.4
57799;BME280;43626;53.866;30.298;2023-05-07T15:57:06;1035.8;;;15.4;20.5
57799;BME280;43626;53.866;30.298;2023-05-07T16:01:42;1035.8;;;15.4;20.5
57799;BME280;43626;53.866;30.298;2023-05-07T16:06:54;1035.8;;;15.7;20.4
57799;BME280;43626;53.866;30.298;2023-05-07T16:12:06;1035.7;;;16.1;20
57799;BME280;43626;53.866;30.298;2023-05-07T16:16:20;1035.7;;;16.6;20.1
57799;BME280;43626;53.866;30.298;2023-05-07T16:21:30;1035.7;;;16.9;19.8
57799;BME280;43626;53.866;30.298;2023-05-07T16:26:38;1035.7;;;17.1;19.1
57799;BME280;43626;53.866;30.298;2023-05-07T16:32:06;1035.8;;;16.9;18.9
57799;BME280;43626;53.866;30.298;2023-05-07T16:36:44;1035.8;;;16.7;18.9
57799;BME280;43626;53.866;30.298;2023-05-07T16:42:06;1035.8;;;16;19.5
57799;BME280;43626;53.866;30.298;2023-05-07T16:47:06;1035.9;;;15.3;20.2
57799;BME280;43626;53.866;30.298;2023-05-07T16:51:20;1035.9;;;14.7;20.7
57799;BME280;43626;53.866;30.298;2023-05-07T16:56:32;1036;;;14.2;21.2
57799;BME280;43626;53.866;30.298;2023-05-07T17:01:56;1036;;;13.8;21.6
57799;BME280;43626;53.866;30.298;2023-05-07T17:06:52;1036;;;13.5;22
57799;BME280;43626;53.866;30.298;2023-05-07T17:11:32;1036;;;13.6;22.2
57799;BME280;43626;53.866;30.298;2023-05-07T17:16:34;1036;;;14.6;21.7
57799;BME280;43626;53.866;30.298;2023-05-07T17:22:08;1036;;;16;20.4
57799;BME280;43626;53.866;30.298;2023-05-07T17:26:50;1036;;;15.6;20.6
57799;BME280;43626;53.866;30.298;2023-05-07T17:31:30;1036.1;;;14.3;21.6
57799;BME280;43626;53.866;30.298;2023-05-07T17:36:38;1036.1;;;13.5;22.8
57799;BME280;43626;53.866;30.298;2023-05-07T17:42:06;1036.1;;;13;23.4
57799;BME280;43626;53.866;30.298;2023-05-07T17:46:32;1036.2;;;12.6;23.7
57799;BME280;43626;53.866;30.298;2023-05-07T17:52:06;1036.2;;;12.3;24
57799;BME280;43626;53.866;30.298;2023-05-07T17:56:54;1036.2;;;12;24.3
57799;BME280;43626;53.866;30.298;2023-05-07T18:01:30;1036.3;;;11.8;24.5
57799;BME280;43626;53.866;30.298;2023-05-07T18:06:50;1036.4;;;11.6;25
57799;BME280;43626;53.866;30.298;2023-05-07T18:11:32;1036.4;;;11.4;25.4
57799;BME280;43626;53.866;30.298;2023-05-07T18:16:38;1036.4;;;11.2;28
57799;BME280;43626;53.866;30.298;2023-05-07T18:21:46;1036.5;;;11;29.6
57799;BME280;43626;53.866;30.298;2023-05-07T18:27:06;1036.5;;;10.8;30.4
57799;BME280;43626;53.866;30.298;2023-05-07T18:31:46;1036.6;;;10.6;30.7
57799;BME280;43626;53.866;30.298;2023-05-07T18:36:40;1036.6;;;10.4;31.6
57799;BME280;43626;53.866;30.298;2023-05-07T18:41:48;1036.6;;;10.2;32.6
57799;BME280;43626;53.866;30.298;2023-05-07T18:46:54;1036.7;;;10;33.2
57799;BME280;43626;53.866;30.298;2023-05-07T18:51:42;1036.7;;;9.8;34.1
57799;BME280;43626;53.866;30.298;2023-05-07T18:56:52;1036.7;;;9.7;35.1
57799;BME280;43626;53.866;30.298;2023-05-07T19:02:08;1036.8;;;9.5;35.9
57799;BME280;43626;53.866;30.298;2023-05-07T19:07:08;1036.8;;;9.3;36.6
57799;BME280;43626;53.866;30.298;2023-05-07T19:11:21;1036.8;;;9.1;37.2
57799;BME280;43626;53.866;30.298;2023-05-07T19:17:08;1036.8;;;9;39.1
57799;BME280;43626;53.866;30.298;2023-05-07T19:21:46;1036.9;;;8.8;40.4
57799;BME280;43626;53.866;30.298;2023-05-07T19:26:28;1036.9;;;8.6;41
57799;BME280;43626;53.866;30.298;2023-05-07T19:31:38;1036.9;;;8.5;41.6
57799;BME280;43626;53.866;30.298;2023-05-07T19:37:06;1036.9;;;8.3;42
57799;BME280;43626;53.866;30.298;2023-05-07T19:41:34;1036.9;;;8.2;42.3
57799;BME280;43626;53.866;30.298;2023-05-07T19:47:06;1037;;;8.1;42.1
57799;BME280;43626;53.866;30.298;2023-05-07T19:52:06;1037;;;8;42
57799;BME280;43626;53.866;30.298;2023-05-07T19:56:30;1037;;;7.9;42.2
57799;BME280;43626;53.866;30.298;2023-05-07T20:01:42;1037.1;;;7.8;42.6
57799;BME280;43626;53.866;30.298;2023-05-07T20:06:54;1037.2;;;7.6;44.1
57799;BME280;43626;53.866;30.298;2023-05-07T20:11:50;1037.2;;;7.5;44.5
57799;BME280;43626;53.866;30.298;2023-05-07T20:16:58;1037.2;;;7.4;44.6
57799;BME280;43626;53.866;30.298;2023-05-07T20:21:46;1037.3;;;7.3;44.9
57799;BME280;43626;53.866;30.298;2023-05-07T20:27:04;1037.4;;;7.2;44.9
57799;BME280;43626;53.866;30.298;2023-05-07T20:31:28;1037.4;;;7.1;44.6
57799;BME280;43626;53.866;30.298;2023-05-07T20:37:06;1037.4;;;7.1;44.5
57799;BME280;43626;53.866;30.298;2023-05-07T20:41:20;1037.5;;;7;44.5
57799;BME280;43626;53.866;30.298;2023-05-07T20:47:06;1037.5;;;6.9;44.6
57799;BME280;43626;53.866;30.298;2023-05-07T20:51:20;1037.5;;;6.8;44.6
57799;BME280;43626;53.866;30.298;2023-05-07T20:56:54;1037.6;;;6.8;44.8
57799;BME280;43626;53.866;30.298;2023-05-07T21:01:54;1037.6;;;6.7;45.6
57799;BME280;43626;53.866;30.298;2023-05-07T21:06:42;1037.6;;;6.6;46.4
57799;BME280;43626;53.866;30.298;2023-05-07T21:11:50;1037.7;;;6.4;46.6
57799;BME280;43626;53.866;30.298;2023-05-07T21:16:46;1037.7;;;6.4;47.1
57799;BME280;43626;53.866;30.298;2023-05-07T21:21:20;1037.8;;;6.3;47.3
57799;BME280;43626;53.866;30.298;2023-05-07T21:27:06;1037.8;;;6.2;47.5
57799;BME280;43626;53.866;30.298;2023-05-07T21:31:58;1037.9;;;6.1;47.1
57799;BME280;43626;53.866;30.298;2023-05-07T21:36:32;1038;;;6.1;47
57799;BME280;43626;53.866;30.298;2023-05-07T21:41:50;1038;;;6;47
57799;BME280;43626;53.866;30.298;2023-05-07T21:46:58;1038.1;;;5.9;47.1
57799;BME280;43626;53.866;30.298;2023-05-07T21:51:52;1038.1;;;5.9;47.1
57799;BME280;43626;53.866;30.298;2023-05-07T21:56:20;1038.2;;;5.8;47.1
57799;BME280;43626;53.866;30.298;2023-05-07T22:01:54;1038.2;;;5.7;47.7
57799;BME280;43626;53.866;30.298;2023-05-07T22:07:04;1038.2;;;5.6;48.4
57799;BME280;43626;53.866;30.298;2023-05-07T22:12:06;1038.2;;;5.5;48.7
57799;BME280;43626;53.866;30.298;2023-05-07T22:16:36;1038.2;;;5.5;49
57799;BME280;43626;53.866;30.298;2023-05-07T22:22:04;1038.2;;;5.4;49.3
57799;BME280;43626;53.866;30.298;2023-05-07T22:26:58;1038.2;;;5.3;49.3
57799;BME280;43626;53.866;30.298;2023-05-07T22:31:32;1038.1;;;5.3;49.1
57799;BME280;43626;53.866;30.298;2023-05-07T22:36:26;1038.2;;;5.2;48.9
57799;BME280;43626;53.866;30.298;2023-05-07T22:42:04;1038.1;;;5.2;48.9
57799;BME280;43626;53.866;30.298;2023-05-07T22:46:20;1038.2;;;5.2;48.8
57799;BME280;43626;53.866;30.298;2023-05-07T22:52:06;1038.2;;;5.2;48.8
57799;BME280;43626;53.866;30.298;2023-05-07T22:57:06;1038.2;;;5.1;48.8
57799;BME280;43626;53.866;30.298;2023-05-07T23:01:32;1038.2;;;5.1;49.1
57799;BME280;43626;53.866;30.298;2023-05-07T23:06:42;1038.2;;;5;49.8
57799;BME280;43626;53.866;30.298;2023-05-07T23:11:46;1038.2;;;4.9;50.1
57799;BME280;43626;53.866;30.298;2023-05-07T23:16:20;1038.2;;;4.9;50.2
57799;BME280;43626;53.866;30.298;2023-05-07T23:21:58;1038.3;;;4.9;50.2
57799;BME280;43626;53.866;30.298;2023-05-07T23:26:46;1038.3;;;4.8;50.2
57799;BME280;43626;53.866;30.298;2023-05-07T23:31:38;1038.3;;;4.8;50.1
57799;BME280;43626;53.866;30.298;2023-05-07T23:37:08;1038.2;;;4.8;49.9
57799;BME280;43626;53.866;30.298;2023-05-07T23:41:34;1038.2;;;4.7;49.7
57799;BME280;43626;53.866;30.298;2023-05-07T23:46:56;1038.2;;;4.7;49.7
57799;BME280;43626;53.866;30.298;2023-05-07T23:52:08;1038.2;;;4.7;49.7
57799;BME280;43626;53.866;30.298;2023-05-07T23:56:20;1038.2;;;4.6;49.7
